createdAt,value
2019-04-14T00:02:59.793Z," 3.68"
2019-04-14T00:07:56.345Z," 3.66"
2019-04-14T00:12:51.568Z," 3.59"
2019-04-14T00:17:47.900Z," 3.62"
2019-04-14T00:22:44.554Z," 3.65"
2019-04-14T00:27:40.826Z," 3.56"
2019-04-14T00:32:37.847Z," 3.53"
2019-04-14T00:37:33.868Z," 3.40"
2019-04-14T00:42:29.857Z," 3.37"
2019-04-14T00:47:25.219Z," 3.32"
2019-04-14T00:52:21.212Z," 3.34"
2019-04-14T00:57:18.095Z," 3.34"
2019-04-14T01:02:13.181Z," 3.26"
2019-04-14T01:07:08.818Z," 3.25"
2019-04-14T01:12:04.446Z," 3.31"
2019-04-14T01:17:00.616Z," 3.29"
2019-04-14T01:21:57.007Z," 3.32"
2019-04-14T01:26:52.928Z," 3.23"
2019-04-14T01:31:49.358Z," 3.22"
2019-04-14T01:36:45.745Z," 3.18"
2019-04-14T01:41:41.130Z," 3.04"
2019-04-14T01:46:37.375Z," 3.00"
2019-04-14T01:51:33.152Z," 3.08"
2019-04-14T01:56:29.441Z," 2.93"
2019-04-14T02:01:25.816Z," 2.93"
2019-04-14T02:06:22.329Z," 3.03"
2019-04-14T02:11:18.348Z," 2.85"
2019-04-14T02:16:24.024Z," 2.80"
2019-04-14T02:21:12.891Z," 2.80"
2019-04-14T02:26:09.177Z," 2.85"
2019-04-14T02:31:17.205Z," 2.87"
2019-04-14T02:36:36.271Z," 2.83"
2019-04-14T02:41:37.972Z," 2.77"
2019-04-14T02:46:31.422Z," 2.67"
2019-04-14T02:51:29.577Z," 2.67"
2019-04-14T02:56:27.997Z," 2.57"
2019-04-14T03:01:40.620Z," 2.57"
2019-04-14T03:06:18.151Z," 2.67"
2019-04-14T03:11:24.579Z," 2.57"
2019-04-14T03:16:23.617Z," 2.54"
2019-04-14T03:21:34.576Z," 2.60"
2019-04-14T03:26:22.963Z," 2.50"
2019-04-14T03:31:37.623Z," 2.49"
2019-04-14T03:46:17.755Z," 2.39"
2019-04-14T03:51:16.789Z," 2.36"
2019-04-14T03:55:54.383Z," 2.25"
2019-04-14T04:00:49.165Z," 2.31"
2019-04-14T04:05:44.198Z," 2.22"
2019-04-14T04:10:40.037Z," 2.15"
2019-04-14T04:15:36.497Z," 2.10"
2019-04-14T04:20:39.158Z," 2.06"
2019-04-14T04:25:34.022Z," 2.02"
2019-04-14T04:30:30.163Z," 2.04"
2019-04-14T04:35:26.015Z," 2.07"
2019-04-14T04:40:22.306Z," 2.02"
2019-04-14T04:45:17.676Z," 1.94"
2019-04-14T04:50:13.486Z," 1.92"
2019-04-14T04:55:09.788Z," 1.88"
2019-04-14T05:00:07.243Z," 1.89"
2019-04-14T05:05:03.516Z," 1.94"
2019-04-14T05:10:00.174Z," 1.94"
2019-04-14T05:14:56.662Z," 1.97"
2019-04-14T05:19:51.949Z," 1.99"
2019-04-14T05:24:48.603Z," 1.92"
2019-04-14T05:29:44.991Z," 1.91"
2019-04-14T05:34:41.208Z," 1.88"
2019-04-14T05:39:37.478Z," 2.00"
2019-04-14T05:44:34.143Z," 2.20"
2019-04-14T05:49:37.858Z," 2.11"
2019-04-14T05:54:29.643Z," 2.32"
2019-04-14T05:59:25.011Z," 2.38"
2019-04-14T06:04:22.175Z," 2.60"
2019-04-14T06:09:17.698Z," 2.74"
2019-04-14T06:14:13.371Z," 2.67"
2019-04-14T06:19:09.078Z," 2.86"
2019-04-14T06:24:12.548Z," 3.10"
2019-04-14T06:29:06.993Z," 3.07"
2019-04-14T06:34:02.546Z," 3.11"
2019-04-14T06:38:58.725Z," 2.92"
2019-04-14T06:43:55.623Z," 3.08"
2019-04-14T06:48:51.086Z," 3.22"
2019-04-14T06:53:46.258Z," 3.32"
2019-04-14T06:58:42.037Z," 3.42"
2019-04-14T07:03:38.781Z," 3.78"
2019-04-14T07:08:35.671Z," 3.76"
2019-04-14T07:13:31.111Z," 3.84"
2019-04-14T07:18:26.651Z," 3.83"
2019-04-14T07:23:22.596Z," 4.12"
2019-04-14T07:28:18.470Z," 4.26"
2019-04-14T07:33:14.541Z," 4.31"
2019-04-14T07:38:10.279Z," 4.50"
2019-04-14T07:43:06.323Z," 4.66"
2019-04-14T07:48:02.955Z," 4.59"
2019-04-14T07:52:58.611Z," 4.66"
2019-04-14T07:57:54.337Z," 5.20"
2019-04-14T08:02:51.102Z," 5.90"
2019-04-14T08:07:47.406Z," 6.31"
2019-04-14T08:12:43.920Z," 6.60"
2019-04-14T08:17:40.124Z," 6.88"
2019-04-14T08:22:36.820Z," 6.77"
2019-04-14T08:32:33.034Z," 6.79"
2019-04-14T08:37:28.282Z," 6.96"
2019-04-14T08:42:24.750Z," 7.28"
2019-04-14T08:47:21.394Z," 7.20"
2019-04-14T08:52:17.333Z," 7.69"
2019-04-14T08:57:12.911Z," 7.31"
2019-04-14T09:02:09.067Z," 7.28"
2019-04-14T09:07:05.157Z," 7.76"
2019-04-14T09:12:00.992Z," 7.40"
2019-04-14T09:16:56.828Z," 7.91"
2019-04-14T09:21:52.986Z," 7.85"
2019-04-14T09:26:49.824Z," 8.13"
2019-04-14T09:31:45.755Z," 8.20"
2019-04-14T09:36:41.392Z," 8.23"
2019-04-14T09:41:37.190Z," 8.48"
2019-04-14T09:46:33.378Z," 8.20"
2019-04-14T09:51:28.760Z," 8.42"
2019-04-14T09:56:25.246Z," 8.69"
2019-04-14T10:01:21.224Z," 8.49"
2019-04-14T10:06:17.013Z," 8.94"
2019-04-14T10:11:13.773Z," 9.13"
2019-04-14T10:16:10.345Z," 8.79"
2019-04-14T10:21:16.921Z," 8.84"
2019-04-14T10:26:07.111Z," 9.14"
2019-04-14T10:31:03.961Z," 9.50"
2019-04-14T10:36:00.781Z," 9.14"
2019-04-14T10:40:56.899Z," 9.95"
2019-04-14T10:45:54.003Z,10.82
2019-04-14T10:50:50.352Z," 9.59"
2019-04-14T10:55:45.792Z,10.10
2019-04-14T11:00:42.304Z,10.82
2019-04-14T11:05:39.845Z,10.81
2019-04-14T11:10:36.517Z,10.74
2019-04-14T11:15:30.618Z," 9.69"
2019-04-14T11:20:24.289Z," 9.44"
2019-04-14T11:25:21.480Z," 9.72"
2019-04-14T11:30:18.469Z," 9.84"
2019-04-14T11:35:16.345Z," 9.36"
2019-04-14T11:40:11.739Z," 9.46"
2019-04-14T11:45:09.742Z,10.02
2019-04-14T11:50:05.962Z," 9.95"
2019-04-14T11:55:01.688Z," 9.80"
2019-04-14T11:59:59.594Z,10.51
2019-04-14T12:04:55.952Z,10.42
2019-04-14T12:09:51.419Z,10.19
2019-04-14T12:14:46.975Z," 9.58"
2019-04-14T12:19:41.930Z," 9.68"
2019-04-14T12:24:38.052Z," 9.95"
2019-04-14T12:29:34.919Z," 9.58"
2019-04-14T12:34:31.168Z," 9.58"
2019-04-14T12:39:28.070Z," 9.59"
2019-04-14T12:44:24.560Z," 9.56"
2019-04-14T12:49:21.600Z," 9.89"
2019-04-14T12:54:17.898Z," 9.72"
2019-04-14T12:59:14.472Z,10.05
2019-04-14T13:04:10.493Z,10.42
2019-04-14T13:09:06.435Z,10.26
2019-04-14T13:14:02.065Z,10.02
2019-04-14T13:18:57.861Z,10.05
2019-04-14T13:23:53.085Z," 9.76"
2019-04-14T13:28:49.109Z," 9.61"
2019-04-14T13:33:45.232Z," 9.58"
2019-04-14T13:38:41.069Z," 9.91"
2019-04-14T13:43:38.059Z," 9.80"
2019-04-14T13:48:33.719Z," 9.73"
2019-04-14T13:53:29.837Z," 9.44"
2019-04-14T13:58:25.158Z," 9.51"
2019-04-14T14:03:21.102Z," 9.65"
2019-04-14T14:08:17.134Z," 9.59"
2019-04-14T14:13:13.226Z," 9.62"
2019-04-14T14:18:10.206Z," 9.76"
2019-04-14T14:23:05.799Z," 9.83"
2019-04-14T14:28:01.401Z," 9.74"
2019-04-14T14:32:57.354Z," 9.69"
2019-04-14T14:37:54.116Z," 9.50"
2019-04-14T14:42:48.779Z," 9.65"
2019-04-14T14:47:44.716Z," 9.44"
2019-04-14T14:52:40.409Z," 9.22"
2019-04-14T14:57:35.802Z," 9.40"
2019-04-14T15:02:31.702Z," 9.44"
2019-04-14T15:07:27.610Z," 9.43"
2019-04-14T15:12:23.824Z," 9.32"
2019-04-14T15:17:19.670Z," 9.39"
2019-04-14T15:22:15.445Z," 9.37"
2019-04-14T15:27:11.368Z," 9.41"
2019-04-14T15:32:07.205Z," 9.39"
2019-04-14T15:37:03.074Z," 9.14"
2019-04-14T15:41:59.019Z," 9.23"
2019-04-14T15:46:55.887Z," 9.16"
2019-04-14T15:51:51.417Z," 9.10"
2019-04-14T15:56:47.060Z," 9.10"
2019-04-14T16:01:42.623Z," 9.00"
2019-04-14T16:06:39.085Z," 8.91"
2019-04-14T16:11:35.467Z," 8.84"
2019-04-14T16:16:30.950Z," 8.79"
2019-04-14T16:21:26.887Z," 8.69"
2019-04-14T16:26:22.842Z," 8.67"
2019-04-14T16:31:18.582Z," 8.64"
2019-04-14T16:36:14.330Z," 8.67"
2019-04-14T16:41:09.768Z," 8.58"
2019-04-14T16:46:06.520Z," 8.58"
2019-04-14T16:51:09.996Z," 8.58"
2019-04-14T16:56:04.708Z," 8.58"
2019-04-14T17:01:00.565Z," 8.48"
2019-04-14T17:05:56.240Z," 8.41"
2019-04-14T17:10:51.745Z," 8.53"
2019-04-14T17:15:54.902Z," 8.26"
2019-04-14T17:20:51.027Z," 8.26"
2019-04-14T17:25:48.833Z," 8.06"
2019-04-14T17:30:44.345Z," 8.00"
2019-04-14T17:35:40.242Z," 7.90"
2019-04-14T17:40:37.970Z," 7.93"
2019-04-14T17:45:33.657Z," 7.85"
2019-04-14T17:50:40.028Z," 7.83"
2019-04-14T17:55:28.309Z," 7.76"
2019-04-14T18:00:24.159Z," 7.69"
2019-04-14T18:05:20.648Z," 7.47"
2019-04-14T18:10:16.001Z," 7.40"
2019-04-14T18:15:12.292Z," 7.51"
2019-04-14T18:20:08.119Z," 7.33"
2019-04-14T18:25:03.877Z," 7.39"
2019-04-14T18:29:59.148Z," 7.21"
2019-04-14T18:34:55.215Z," 7.18"
2019-04-14T18:39:52.396Z," 7.15"
2019-04-14T18:44:51.138Z," 7.13"
2019-04-14T18:49:45.740Z," 7.10"
2019-04-14T18:54:41.058Z," 7.11"
2019-04-14T18:59:36.846Z," 7.07"
2019-04-14T19:04:33.893Z," 7.05"
2019-04-14T19:09:29.660Z," 7.00"
2019-04-14T19:14:25.345Z," 6.92"
2019-04-14T19:19:21.289Z," 7.00"
2019-04-14T19:24:16.885Z," 6.89"
2019-04-14T19:29:13.963Z," 6.89"
2019-04-14T19:34:10.363Z," 6.85"
2019-04-14T19:39:05.951Z," 6.93"
2019-04-14T19:44:01.730Z," 6.79"
2019-04-14T19:48:57.859Z," 6.67"
2019-04-14T19:53:53.490Z," 6.77"
2019-04-14T19:58:50.073Z," 6.81"
2019-04-14T20:03:46.679Z," 6.75"
2019-04-14T20:08:42.136Z," 6.62"
2019-04-14T20:13:42.296Z," 6.66"
2019-04-14T20:18:38.381Z," 6.74"
2019-04-14T20:23:33.634Z," 6.66"
2019-04-14T20:28:29.295Z," 6.72"
2019-04-14T20:33:27.238Z," 6.69"
2019-04-14T20:38:22.993Z," 6.77"
2019-04-14T20:43:19.552Z," 6.75"
2019-04-14T20:48:17.220Z," 6.75"
2019-04-14T20:53:12.290Z," 6.77"
2019-04-14T20:58:07.920Z," 6.69"
2019-04-14T21:03:03.745Z," 6.75"
2019-04-14T21:07:59.256Z," 6.84"
2019-04-14T21:12:57.408Z," 6.84"
2019-04-14T21:17:52.952Z," 6.84"
2019-04-14T21:22:49.026Z," 6.85"
2019-04-14T21:27:45.814Z," 6.84"
2019-04-14T21:32:42.867Z," 6.64"
2019-04-14T21:37:38.444Z," 6.77"
2019-04-14T21:42:34.178Z," 6.69"
2019-04-14T21:47:30.035Z," 6.70"
2019-04-14T21:52:25.813Z," 6.74"
2019-04-14T21:57:21.642Z," 6.64"
2019-04-14T22:02:17.265Z," 6.77"
2019-04-14T22:07:12.975Z," 6.63"
2019-04-14T22:12:08.658Z," 6.69"
2019-04-14T22:17:04.407Z," 6.64"
2019-04-14T22:22:00.040Z," 6.66"
2019-04-14T22:26:55.847Z," 6.69"
2019-04-14T22:31:51.439Z," 6.69"
2019-04-14T22:36:47.422Z," 6.74"
2019-04-14T22:41:44.215Z," 6.84"
2019-04-14T22:46:39.618Z," 6.75"
2019-04-14T22:51:36.184Z," 6.72"
2019-04-14T22:56:39.204Z," 6.72"
2019-04-14T23:01:32.112Z," 6.64"
2019-04-14T23:06:29.263Z," 6.74"
2019-04-14T23:11:24.673Z," 6.70"
2019-04-14T23:16:21.104Z," 6.63"
2019-04-14T23:21:17.589Z," 6.70"
2019-04-14T23:26:13.501Z," 6.70"
2019-04-14T23:31:09.976Z," 6.66"
2019-04-14T23:36:04.946Z," 6.67"
2019-04-14T23:41:01.878Z," 6.63"
2019-04-14T23:45:57.312Z," 6.66"
2019-04-14T23:50:53.312Z," 6.66"
2019-04-14T23:55:50.381Z," 6.72"
